Time;durP1;ratioP1;P1;durP2;ratioP2;P2;SDS_P1;SDS_P2;PMS_P1;PMS_P2;Temp;Humidity;BMP_temperature;BMP_pressure;BME280_temperature;BME280_humidity;BME280_pressure;Samples;Min_cycle;Max_cycle;Signal;HPM_P1;HPM_P2
2022/08/18 00:02:08;;;;;;;66.63;58.03;;;18.70;99.90;;;;;;4976489;28;20061;-56
2022/08/18 00:04:37;;;;;;;66.50;56.10;;;18.80;99.90;;;;;;4982149;28;20082;-56
2022/08/18 00:07:05;;;;;;;63.70;56.67;;;18.80;99.90;;;;;;4978288;28;20113;-57
2022/08/18 00:09:32;;;;;;;65.88;57.47;;;18.80;99.90;;;;;;4977652;28;20065;-57
2022/08/18 00:11:57;;;;;;;66.35;57.65;;;18.80;99.90;;;;;;4981704;28;20028;-57
2022/08/18 00:14:23;;;;;;;65.70;56.90;;;18.80;99.90;;;;;;4985629;28;20026;-56
2022/08/18 00:16:52;;;;;;;62.42;54.38;;;18.80;99.90;;;;;;4986586;28;20120;-57
2022/08/18 00:19:18;;;;;;;66.30;56.58;;;18.80;99.90;;;;;;4988455;28;20512;-56
2022/08/18 00:21:44;;;;;;;59.72;53.22;;;18.80;99.90;;;;;;4983380;28;20030;-56
2022/08/18 00:24:09;;;;;;;62.88;55.40;;;18.70;99.90;;;;;;4979954;28;20018;-57
2022/08/18 00:26:35;;;;;;;64.75;56.38;;;18.70;99.90;;;;;;4981556;28;20045;-56
2022/08/18 00:29:00;;;;;;;62.92;55.08;;;18.70;99.90;;;;;;4976977;28;20053;-57
2022/08/18 00:31:26;;;;;;;70.90;59.25;;;18.70;99.90;;;;;;4981056;28;20042;-57
2022/08/18 00:33:52;;;;;;;61.63;54.85;;;18.80;99.90;;;;;;4982765;28;20120;-57
2022/08/18 00:36:17;;;;;;;66.82;57.38;;;18.90;99.90;;;;;;4980761;28;20035;-57
2022/08/18 00:38:43;;;;;;;65.53;56.75;;;18.90;99.90;;;;;;4982607;28;20428;-57
2022/08/18 00:41:08;;;;;;;65.30;56.58;;;18.80;99.90;;;;;;4981770;28;20421;-57
2022/08/18 00:43:42;;;;;;;62.97;53.95;;;18.70;99.90;;;;;;4985592;28;20038;-56
2022/08/18 00:46:14;;;;;;;66.45;56.53;;;18.70;99.90;;;;;;4985001;28;20034;-58
2022/08/18 00:48:39;;;;;;;64.85;55.47;;;18.60;99.90;;;;;;4983348;28;20050;-57
2022/08/18 00:51:14;;;;;;;69.38;57.85;;;18.50;99.90;;;;;;4977826;28;20049;-56
2022/08/18 00:53:57;;;;;;;64.72;55.60;;;18.50;99.90;;;;;;4981991;28;20084;-56
2022/08/18 00:56:27;;;;;;;63.70;54.78;;;18.60;99.90;;;;;;4986743;28;20030;-56
2022/08/18 00:59:01;;;;;;;61.47;54.78;;;18.60;99.90;;;;;;4984035;28;20033;-56
2022/08/18 01:01:30;;;;;;;66.78;56.28;;;18.70;99.90;;;;;;4980687;28;20033;-57
2022/08/18 01:04:04;;;;;;;71.68;59.55;;;18.80;99.90;;;;;;4980249;28;21470;-57
2022/08/18 01:06:48;;;;;;;73.30;62.15;;;18.90;99.90;;;;;;4979536;28;20650;-57
2022/08/18 01:09:16;;;;;;;72.55;61.53;;;19.00;99.90;;;;;;4984365;28;20482;-57
2022/08/18 01:11:43;;;;;;;75.90;63.72;;;19.10;99.90;;;;;;4983263;28;20034;-57
2022/08/18 01:14:09;;;;;;;77.43;63.40;;;19.20;99.90;;;;;;4984400;28;20057;-56
2022/08/18 01:22:13;;;;;;;81.50;66.03;;;19.20;99.90;;;;;;4981328;28;20538;-57
2022/08/18 01:27:25;;;;;;;88.78;67.20;;;19.10;99.90;;;;;;4983206;28;20116;-57
2022/08/18 01:29:51;;;;;;;88.65;69.20;;;19.20;99.90;;;;;;4985134;28;20030;-57
2022/08/18 01:32:20;;;;;;;89.70;68.93;;;19.10;99.90;;;;;;4988293;28;20041;-57
2022/08/18 01:34:48;;;;;;;89.25;67.45;;;19.20;99.90;;;;;;4982462;28;20018;-57
2022/08/18 01:37:17;;;;;;;90.03;68.50;;;19.30;99.90;;;;;;4982750;28;20081;-57
2022/08/18 01:39:43;;;;;;;89.53;67.28;;;19.20;99.90;;;;;;4992406;28;20019;-56
2022/08/18 01:42:11;;;;;;;96.95;70.15;;;19.30;99.90;;;;;;4982661;28;20034;-57
2022/08/18 01:44:40;;;;;;;100.10;73.45;;;19.50;99.90;;;;;;4985610;28;20014;-58
2022/08/18 01:47:06;;;;;;;94.15;70.45;;;19.70;99.90;;;;;;4988981;28;20105;-56
2022/08/18 01:49:32;;;;;;;94.97;73.47;;;20.40;99.90;;;;;;4984876;28;20076;-57
2022/08/18 01:51:57;;;;;;;99.55;72.70;;;19.80;99.90;;;;;;4989607;28;20437;-57
2022/08/18 01:54:23;;;;;;;94.22;70.43;;;19.90;99.90;;;;;;4982090;28;20037;-57
2022/08/18 01:56:51;;;;;;;99.85;72.88;;;19.70;99.90;;;;;;4985899;28;20030;-57
2022/08/18 01:59:16;;;;;;;96.85;71.85;;;19.80;99.90;;;;;;4982743;28;20026;-57
2022/08/18 02:01:44;;;;;;;95.65;69.90;;;19.80;99.90;;;;;;4990246;28;20037;-57
2022/08/18 02:04:11;;;;;;;99.85;71.18;;;19.80;99.90;;;;;;4985760;28;20030;-58
2022/08/18 02:06:37;;;;;;;96.93;70.30;;;19.80;99.90;;;;;;4981511;28;20033;-56
2022/08/18 02:09:03;;;;;;;94.93;69.20;;;19.90;99.90;;;;;;4991018;28;20113;-57
2022/08/18 02:11:28;;;;;;;97.50;68.80;;;19.70;99.90;;;;;;4986051;28;20616;-57
2022/08/18 02:13:54;;;;;;;99.90;70.47;;;19.60;99.90;;;;;;4988085;28;20081;-57
2022/08/18 02:16:19;;;;;;;96.65;68.40;;;19.80;99.90;;;;;;4986231;28;20114;-57
2022/08/18 02:18:45;;;;;;;100.07;69.88;;;19.80;99.90;;;;;;4991313;28;20034;-56
2022/08/18 02:21:13;;;;;;;97.78;67.18;;;19.90;99.90;;;;;;4986495;28;20085;-57
2022/08/18 02:23:41;;;;;;;90.95;63.47;;;19.80;99.90;;;;;;4987541;28;20719;-57
2022/08/18 02:26:08;;;;;;;96.65;67.13;;;19.70;99.90;;;;;;4986077;28;20041;-56
2022/08/18 02:28:34;;;;;;;91.60;63.72;;;19.40;99.90;;;;;;4986169;28;20046;-57
2022/08/18 02:31:13;;;;;;;98.43;65.45;;;19.50;99.90;;;;;;4986067;28;20038;-57
2022/08/18 02:33:39;;;;;;;93.43;63.55;;;19.50;99.90;;;;;;4987456;28;20521;-57
2022/08/18 02:36:05;;;;;;;99.28;66.85;;;19.70;99.90;;;;;;4991565;28;20040;-56
2022/08/18 02:38:32;;;;;;;94.57;66.53;;;19.80;99.90;;;;;;4991154;28;21197;-56
2022/08/18 02:41:00;;;;;;;97.25;66.38;;;20.10;99.90;;;;;;4984855;28;20121;-57
2022/08/18 02:43:27;;;;;;;94.70;64.82;;;19.80;99.90;;;;;;4981124;28;20385;-57
2022/08/18 02:45:53;;;;;;;95.03;64.00;;;19.70;99.90;;;;;;4987619;28;20026;-57
2022/08/18 02:48:34;;;;;;;92.28;62.47;;;19.70;99.90;;;;;;4984129;28;20073;-57
2022/08/18 02:51:03;;;;;;;97.15;63.20;;;19.70;99.90;;;;;;4982322;28;20038;-57
2022/08/18 02:53:29;;;;;;;93.63;61.40;;;19.60;99.90;;;;;;4983872;28;20252;-56
2022/08/18 02:56:07;;;;;;;95.30;63.10;;;19.30;99.90;;;;;;4988784;28;20045;-57
2022/08/18 02:58:33;;;;;;;98.85;63.83;;;19.30;99.90;;;;;;4981839;28;20026;-57
2022/08/18 03:00:58;;;;;;;92.03;61.00;;;19.30;99.90;;;;;;4978973;28;20037;-57
2022/08/18 03:03:24;;;;;;;98.07;62.67;;;19.30;99.90;;;;;;4985938;28;20049;-57
2022/08/18 03:05:49;;;;;;;97.05;64.30;;;19.20;99.90;;;;;;4985731;28;20037;-56
2022/08/18 03:08:15;;;;;;;92.45;60.65;;;19.30;99.90;;;;;;4976621;28;20034;-55
2022/08/18 03:10:40;;;;;;;92.80;61.97;;;19.40;99.90;;;;;;4988429;28;20037;-56
2022/08/18 03:13:06;;;;;;;89.38;60.42;;;19.20;99.90;;;;;;4987925;28;20061;-58
2022/08/18 03:15:32;;;;;;;91.95;60.38;;;19.40;99.90;;;;;;4985343;28;20026;-56
2022/08/18 03:17:58;;;;;;;92.20;60.45;;;19.50;99.90;;;;;;4991676;28;20069;-56
2022/08/18 03:20:23;;;;;;;89.78;59.17;;;19.60;99.90;;;;;;4987999;28;20101;-57
2022/08/18 03:22:49;;;;;;;89.18;59.55;;;19.60;99.90;;;;;;4990491;28;20711;-57
2022/08/18 03:25:15;;;;;;;87.53;58.55;;;19.30;99.90;;;;;;4983845;28;20034;-56
2022/08/18 03:27:40;;;;;;;88.30;60.35;;;19.10;99.90;;;;;;4981249;28;20037;-57
2022/08/18 03:30:06;;;;;;;87.70;61.03;;;19.20;99.90;;;;;;4986684;28;20030;-57
2022/08/18 03:32:32;;;;;;;84.53;57.95;;;19.40;99.90;;;;;;4984247;28;20422;-58
2022/08/18 03:34:58;;;;;;;81.40;57.78;;;19.50;99.90;;;;;;4985432;28;20049;-57
2022/08/18 03:37:24;;;;;;;85.47;58.35;;;19.70;99.90;;;;;;4980150;28;20058;-57
2022/08/18 03:39:51;;;;;;;88.20;59.38;;;19.60;99.90;;;;;;4990014;28;20183;-56
2022/08/18 03:42:16;;;;;;;80.78;56.28;;;19.70;99.90;;;;;;4988255;28;20105;-56
2022/08/18 03:44:42;;;;;;;77.35;55.50;;;19.70;99.90;;;;;;4986142;28;20589;-57
2022/08/18 03:47:09;;;;;;;80.82;55.35;;;;;;;;;;4984226;28;20070;-57
2022/08/18 03:49:36;;;;;;;78.80;56.20;;;19.80;99.90;;;;;;4985881;28;20037;-57
2022/08/18 03:52:04;;;;;;;77.07;56.00;;;19.80;99.90;;;;;;4987564;28;20616;-57
2022/08/18 03:54:30;;;;;;;72.50;51.58;;;19.60;99.90;;;;;;4984474;28;20443;-57
2022/08/18 03:56:57;;;;;;;76.28;55.30;;;19.40;99.90;;;;;;4986191;28;20036;-57
2022/08/18 03:59:25;;;;;;;72.60;53.47;;;19.20;99.90;;;;;;4990929;28;20035;-57
2022/08/18 04:01:53;;;;;;;76.47;53.97;;;19.30;99.90;;;;;;4980719;28;20271;-56
2022/08/18 04:04:25;;;;;;;79.15;54.90;;;19.60;99.90;;;;;;4980021;28;20602;-57
2022/08/18 04:06:54;;;;;;;71.25;52.53;;;19.80;99.90;;;;;;4986583;28;20028;-58
2022/08/18 04:09:21;;;;;;;74.07;53.17;;;19.70;99.90;;;;;;4984082;28;20041;-57
2022/08/18 04:11:47;;;;;;;71.90;54.10;;;19.50;99.90;;;;;;4986434;28;20082;-57
2022/08/18 04:14:16;;;;;;;76.63;55.38;;;19.40;99.90;;;;;;4988313;28;20481;-56
2022/08/18 04:16:42;;;;;;;76.43;54.88;;;19.50;99.90;;;;;;4986298;28;20018;-57
2022/08/18 04:19:09;;;;;;;74.00;53.85;;;19.60;99.90;;;;;;4983821;28;20074;-56
2022/08/18 04:21:37;;;;;;;75.32;54.53;;;19.80;99.90;;;;;;4985221;28;20039;-56
2022/08/18 04:24:04;;;;;;;80.47;56.45;;;19.70;99.90;;;;;;4983028;28;20052;-56
2022/08/18 04:26:35;;;;;;;80.53;58.05;;;19.70;99.90;;;;;;4983076;28;20053;-57
2022/08/18 04:29:02;;;;;;;79.68;56.10;;;20.00;99.90;;;;;;4984370;28;20124;-58
2022/08/18 04:31:29;;;;;;;85.45;60.03;;;20.00;99.90;;;;;;4983113;28;20397;-57
2022/08/18 04:33:56;;;;;;;94.50;63.10;;;19.90;99.90;;;;;;4983935;28;20045;-56
2022/08/18 04:36:21;;;;;;;93.32;62.47;;;20.00;99.90;;;;;;4988045;28;20034;-57
2022/08/18 04:38:47;;;;;;;94.50;64.10;;;19.90;99.90;;;;;;4989749;28;20026;-57
2022/08/18 04:41:14;;;;;;;91.18;62.22;;;19.90;99.90;;;;;;4981253;28;20655;-57
2022/08/18 04:43:40;;;;;;;95.20;63.72;;;19.90;99.90;;;;;;4980550;28;20048;-58
2022/08/18 04:46:06;;;;;;;95.13;63.08;;;19.90;99.90;;;;;;4979894;28;20053;-57
2022/08/18 04:48:35;;;;;;;93.00;63.00;;;19.90;99.90;;;;;;4985015;28;20026;-58
2022/08/18 04:51:12;;;;;;;95.13;64.22;;;20.10;99.90;;;;;;4994823;28;20081;-56
2022/08/18 04:53:45;;;;;;;98.28;63.78;;;20.10;99.90;;;;;;4984792;28;20405;-56
2022/08/18 04:56:27;;;;;;;105.33;66.10;;;20.20;99.90;;;;;;4983935;28;20030;-57
2022/08/18 04:58:56;;;;;;;96.30;62.22;;;20.20;99.90;;;;;;4984559;28;20382;-57
2022/08/18 05:01:26;;;;;;;98.30;64.07;;;20.10;99.90;;;;;;4983354;28;20023;-57
2022/08/18 05:03:53;;;;;;;102.97;69.03;;;19.90;99.90;;;;;;4976886;28;20034;-57
2022/08/18 05:06:24;;;;;;;93.85;62.33;;;19.80;99.90;;;;;;4979412;28;20205;-57
2022/08/18 05:08:55;;;;;;;101.63;65.82;;;19.90;99.90;;;;;;4984387;28;20057;-57
2022/08/18 05:11:23;;;;;;;97.63;66.18;;;20.00;99.90;;;;;;4980924;28;20666;-56
2022/08/18 05:13:51;;;;;;;104.32;67.30;;;20.00;99.90;;;;;;4984467;28;21364;-57
2022/08/18 05:16:17;;;;;;;104.40;65.63;;;20.10;99.90;;;;;;4979748;28;20042;-56
2022/08/18 05:18:43;;;;;;;103.65;66.53;;;20.20;99.90;;;;;;4984991;28;20030;-57
2022/08/18 05:21:14;;;;;;;99.82;65.57;;;20.20;99.90;;;;;;4984081;28;20037;-56
2022/08/18 05:23:41;;;;;;;103.00;68.00;;;19.90;99.90;;;;;;4982430;28;20134;-56
2022/08/18 05:26:08;;;;;;;99.63;64.82;;;19.90;99.90;;;;;;4979871;28;20033;-57
2022/08/18 05:28:36;;;;;;;102.68;67.57;;;19.90;99.90;;;;;;4979700;28;20038;-57
2022/08/18 05:31:07;;;;;;;97.47;63.47;;;20.00;99.90;;;;;;4983102;28;20498;-57
2022/08/18 05:33:35;;;;;;;97.07;60.55;;;20.10;99.90;;;;;;4981228;28;20061;-57
2022/08/18 05:36:04;;;;;;;138.18;104.22;;;20.10;99.90;;;;;;4976892;28;20486;-56
2022/08/18 05:38:58;;;;;;;188.55;155.80;;;20.30;99.90;;;;;;4980228;28;20073;-57
2022/08/18 05:41:31;;;;;;;88.70;59.67;;;20.00;99.90;;;;;;4981723;28;20109;-57
2022/08/18 05:43:57;;;;;;;87.20;60.40;;;20.00;99.90;;;;;;4984251;28;20378;-58
2022/08/18 05:46:39;;;;;;;92.53;62.22;;;20.20;99.90;;;;;;4980859;28;20026;-57
2022/08/18 05:49:04;;;;;;;90.18;62.45;;;20.10;99.90;;;;;;4983380;28;20494;-57
2022/08/18 05:51:39;;;;;;;91.78;61.70;;;20.10;99.90;;;;;;4984080;28;20030;-57
2022/08/18 05:56:53;;;;;;;83.88;56.42;;;20.20;99.90;;;;;;4983675;28;20044;-57
2022/08/18 05:59:21;;;;;;;86.95;58.80;;;20.20;99.90;;;;;;4982962;28;20108;-58
2022/08/18 06:01:54;;;;;;;84.47;59.22;;;20.10;99.90;;;;;;4978639;28;20489;-58
2022/08/18 06:04:37;;;;;;;81.70;58.45;;;20.20;99.90;;;;;;4973991;28;20487;-57
2022/08/18 06:07:07;;;;;;;74.28;55.08;;;20.20;99.90;;;;;;4977901;28;20473;-58
2022/08/18 06:09:57;;;;;;;77.97;55.70;;;20.40;99.90;;;;;;4974675;28;20307;-56
2022/08/18 06:12:52;;;;;;;80.18;57.70;;;20.10;99.90;;;;;;4975562;28;20077;-57
2022/08/18 06:15:20;;;;;;;80.85;55.25;;;20.00;99.90;;;;;;4974205;28;20066;-58
2022/08/18 06:18:03;;;;;;;79.47;54.95;;;20.00;99.90;;;;;;4982918;28;20783;-58
2022/08/18 06:20:47;;;;;;;78.60;55.17;;;20.00;99.90;;;;;;4983465;28;20518;-58
2022/08/18 06:23:19;;;;;;;68.72;52.35;;;20.20;99.90;;;;;;4981949;28;20018;-57
2022/08/18 06:26:03;;;;;;;71.93;53.42;;;20.20;99.90;;;;;;4986558;28;20038;-58
2022/08/18 06:28:42;;;;;;;70.70;52.33;;;20.30;99.90;;;;;;4984064;28;20062;-57
2022/08/18 06:31:17;;;;;;;73.25;53.60;;;20.20;99.90;;;;;;4988116;28;20170;-57
2022/08/18 06:33:58;;;;;;;71.50;51.83;;;20.50;99.90;;;;;;4987083;28;20464;-57
2022/08/18 06:36:51;;;;;;;73.63;53.72;;;20.40;99.90;;;;;;4985697;28;20022;-58
2022/08/18 06:39:28;;;;;;;72.00;53.40;;;20.30;99.90;;;;;;4988868;28;20576;-57
2022/08/18 06:41:54;;;;;;;74.55;53.58;;;20.30;99.90;;;;;;4988966;28;20026;-57
2022/08/18 06:44:34;;;;;;;72.75;53.63;;;20.50;99.90;;;;;;4989482;28;20477;-57
2022/08/18 06:47:03;;;;;;;70.47;52.00;;;20.30;99.90;;;;;;4985422;28;20096;-57
2022/08/18 06:49:50;;;;;;;73.60;54.53;;;20.50;99.90;;;;;;4986065;28;20165;-57
2022/08/18 06:52:23;;;;;;;71.82;52.63;;;20.30;99.90;;;;;;4982379;28;20553;-55
2022/08/18 06:54:50;;;;;;;68.15;51.33;;;20.40;99.90;;;;;;4983220;28;20030;-57
2022/08/18 06:57:52;;;;;;;72.50;54.88;;;20.50;99.90;;;;;;4983098;28;20014;-57
2022/08/18 07:00:18;;;;;;;72.15;51.00;;;20.70;99.90;;;;;;4979062;28;20100;-57
2022/08/18 07:02:53;;;;;;;70.40;52.90;;;20.70;99.90;;;;;;4978009;28;20046;-58
2022/08/18 07:05:25;;;;;;;68.35;50.60;;;20.80;99.90;;;;;;4980280;28;20429;-58
2022/08/18 07:08:13;;;;;;;68.57;52.80;;;20.70;99.90;;;;;;4982234;28;20054;-58
2022/08/18 07:10:43;;;;;;;66.43;50.45;;;20.50;99.90;;;;;;4979165;28;20474;-58
2022/08/18 07:13:26;;;;;;;64.47;49.42;;;20.90;99.90;;;;;;4983469;28;20049;-58
2022/08/18 07:15:54;;;;;;;65.53;50.43;;;20.30;99.90;;;;;;4986922;28;20037;-57
2022/08/18 07:18:23;;;;;;;62.70;49.08;;;21.00;99.90;;;;;;4980296;28;20030;-57
2022/08/18 07:20:55;;;;;;;65.70;49.10;;;20.90;99.90;;;;;;4987066;28;20079;-58
2022/08/18 07:23:37;;;;;;;61.97;48.15;;;20.80;99.90;;;;;;4984539;28;20019;-56
2022/08/18 07:26:15;;;;;;;62.20;47.55;;;20.90;99.90;;;;;;4983256;28;20031;-57
2022/08/18 07:28:50;;;;;;;64.50;49.42;;;20.90;99.90;;;;;;4988635;28;20512;-57
2022/08/18 07:31:48;;;;;;;60.85;44.42;;;20.80;99.90;;;;;;4982754;28;20454;-57
2022/08/18 07:34:39;;;;;;;52.47;41.17;;;20.90;99.90;;;;;;4985053;28;20042;-59
2022/08/18 07:37:27;;;;;;;49.35;38.30;;;20.90;99.90;;;;;;4984118;28;20510;-57
2022/08/18 07:40:03;;;;;;;45.50;36.17;;;20.80;99.90;;;;;;4985151;28;20019;-58
2022/08/18 07:42:37;;;;;;;39.30;34.22;;;20.90;99.90;;;;;;4982571;28;20402;-57
2022/08/18 07:45:25;;;;;;;39.63;31.30;;;20.60;99.90;;;;;;4979771;28;20026;-58
2022/08/18 07:48:06;;;;;;;40.35;32.08;;;20.70;99.90;;;;;;4987232;28;20030;-58
2022/08/18 07:51:03;;;;;;;35.75;29.95;;;20.80;99.90;;;;;;4979784;28;20139;-57
2022/08/18 07:53:50;;;;;;;35.35;30.35;;;20.70;99.90;;;;;;4981184;28;20043;-57
2022/08/18 07:56:31;;;;;;;35.75;28.33;;;20.90;99.90;;;;;;4983280;28;20382;-58
2022/08/18 07:59:10;;;;;;;29.98;25.80;;;20.90;99.90;;;;;;4990434;28;20817;-59
2022/08/18 08:01:58;;;;;;;29.38;25.63;;;20.90;99.90;;;;;;4978178;28;20654;-57
2022/08/18 08:04:59;;;;;;;27.90;22.20;;;21.20;99.90;;;;;;4978164;28;20183;-58
2022/08/18 08:07:44;;;;;;;26.42;21.70;;;21.00;99.90;;;;;;4982572;28;20030;-58
2022/08/18 08:10:21;;;;;;;22.48;18.10;;;21.00;99.90;;;;;;4984345;28;20088;-57
2022/08/18 08:13:01;;;;;;;21.73;17.95;;;20.90;99.90;;;;;;4980060;28;20109;-58
2022/08/18 08:15:51;;;;;;;20.77;17.27;;;20.90;99.90;;;;;;4977335;28;20493;-57
2022/08/18 08:18:43;;;;;;;19.88;16.00;;;21.10;99.90;;;;;;4979599;28;20015;-58
2022/08/18 08:21:18;;;;;;;18.20;15.70;;;21.00;99.90;;;;;;4975571;28;20027;-58
2022/08/18 08:24:25;;;;;;;21.50;19.20;;;21.30;99.90;;;;;;4979000;28;20065;-58
2022/08/18 08:26:56;;;;;;;18.60;15.00;;;21.60;99.90;;;;;;4980373;28;20121;-59
2022/08/18 08:29:43;;;;;;;21.20;14.38;;;21.70;99.90;;;;;;4982393;28;20031;-58
2022/08/18 08:32:29;;;;;;;13.90;12.45;;;22.00;99.90;;;;;;4984342;28;20133;-57
2022/08/18 08:35:01;;;;;;;15.32;13.35;;;22.30;99.90;;;;;;4981580;28;20030;-57
2022/08/18 08:37:34;;;;;;;15.47;13.30;;;22.30;99.90;;;;;;4983589;28;20037;-57
2022/08/18 08:40:14;;;;;;;16.92;14.35;;;22.00;99.90;;;;;;4984895;28;20041;-58
2022/08/18 08:42:56;;;;;;;16.60;14.77;;;21.70;99.90;;;;;;4984908;28;20096;-58
2022/08/18 08:45:32;;;;;;;17.15;15.35;;;21.60;99.90;;;;;;4977776;28;20532;-59
2022/08/18 08:48:05;;;;;;;17.80;15.02;;;21.30;99.90;;;;;;4986096;28;20057;-58
2022/08/18 08:50:39;;;;;;;17.55;14.98;;;21.30;99.90;;;;;;4980694;28;20076;-58
2022/08/18 08:53:31;;;;;;;17.63;13.63;;;21.50;99.90;;;;;;4986784;28;20401;-59
2022/08/18 08:56:05;;;;;;;15.95;14.35;;;21.80;99.90;;;;;;4974981;28;20030;-59
2022/08/18 08:58:47;;;;;;;17.05;14.20;;;21.80;99.90;;;;;;4991060;28;20036;-58
2022/08/18 09:01:54;;;;;;;18.77;14.77;;;21.90;99.90;;;;;;4981812;28;20030;-59
2022/08/18 09:04:46;;;;;;;19.33;14.98;;;22.00;99.90;;;;;;4978140;28;20038;-58
2022/08/18 09:07:47;;;;;;;17.75;14.20;;;22.20;99.90;;;;;;4979074;28;20037;-57
2022/08/18 09:10:40;;;;;;;17.80;15.18;;;22.40;99.90;;;;;;4976854;28;20467;-57
2022/08/18 09:13:27;;;;;;;17.13;15.32;;;21.90;99.90;;;;;;4984949;28;20069;-59
2022/08/18 09:16:29;;;;;;;20.23;15.35;;;22.20;99.90;;;;;;4986376;28;20061;-59
2022/08/18 09:19:32;;;;;;;18.25;15.88;;;22.30;99.90;;;;;;4983960;28;20602;-58
2022/08/18 09:21:59;;;;;;;15.48;13.88;;;22.40;99.90;;;;;;4989069;28;20049;-59
2022/08/18 09:24:46;;;;;;;16.85;14.95;;;22.50;99.90;;;;;;4983378;28;20099;-59
2022/08/18 09:27:33;;;;;;;17.48;14.57;;;22.80;99.90;;;;;;4972049;28;20040;-58
2022/08/18 09:30:01;;;;;;;15.77;14.05;;;22.70;99.90;;;;;;4981122;28;20033;-58
2022/08/18 09:32:26;;;;;;;17.33;15.32;;;22.30;99.90;;;;;;4985344;28;20033;-57
2022/08/18 09:34:55;;;;;;;15.27;13.65;;;22.50;99.90;;;;;;4981458;28;20019;-58
2022/08/18 09:37:44;;;;;;;14.32;12.82;;;22.40;99.90;;;;;;4982105;28;20071;-59
2022/08/18 09:43:22;;;;;;;18.83;13.70;;;22.50;99.90;;;;;;4987614;28;20033;-59
2022/08/18 09:45:59;;;;;;;15.52;13.20;;;22.80;99.90;;;;;;4978708;28;20061;-58
2022/08/18 09:48:36;;;;;;;12.48;10.10;;;22.40;99.90;;;;;;4986844;28;20113;-58
2022/08/18 09:51:14;;;;;;;13.13;10.65;;;22.80;99.90;;;;;;4979985;28;20734;-59
2022/08/18 09:53:46;;;;;;;11.73;9.88;;;23.00;99.90;;;;;;4985703;28;20034;-59
2022/08/18 09:56:36;;;;;;;11.35;9.77;;;23.00;99.90;;;;;;4982011;28;20027;-60
2022/08/18 09:59:03;;;;;;;12.05;10.73;;;22.80;99.90;;;;;;4985329;28;20022;-59
2022/08/18 10:01:29;;;;;;;13.38;10.77;;;22.90;99.90;;;;;;4988469;28;20026;-59
2022/08/18 10:04:13;;;;;;;13.20;11.35;;;22.40;99.90;;;;;;4982034;28;20022;-59
2022/08/18 10:06:40;;;;;;;11.50;9.90;;;22.30;99.90;;;;;;4983535;28;20883;-59
2022/08/18 10:09:29;;;;;;;11.20;9.88;;;22.30;99.90;;;;;;4986477;28;20481;-59
2022/08/18 10:12:34;;;;;;;10.93;9.75;;;22.70;99.90;;;;;;4985727;28;20033;-60
2022/08/18 10:15:20;;;;;;;11.77;9.95;;;22.40;99.90;;;;;;4984730;28;20030;-58
2022/08/18 10:17:59;;;;;;;11.00;9.20;;;22.70;99.90;;;;;;4989336;28;20508;-59
2022/08/18 10:20:43;;;;;;;9.70;8.75;;;22.70;99.90;;;;;;4987799;28;20030;-58
2022/08/18 10:23:09;;;;;;;10.57;9.20;;;22.80;99.90;;;;;;4986350;28;20557;-59
2022/08/18 10:25:46;;;;;;;9.80;8.80;;;22.70;99.90;;;;;;4983730;28;20029;-59
2022/08/18 10:29:04;;;;;;;8.85;7.68;;;22.70;99.90;;;;;;4989244;28;20014;-59
2022/08/18 10:31:51;;;;;;;8.90;8.00;;;22.90;99.90;;;;;;4997357;28;20049;-59
2022/08/18 10:34:42;;;;;;;9.43;7.97;;;23.30;99.90;;;;;;4988892;28;20042;-60
2022/08/18 10:37:41;;;;;;;10.05;8.32;;;23.10;99.90;;;;;;4986750;28;20429;-59
2022/08/18 10:40:12;;;;;;;11.27;8.10;;;23.00;99.90;;;;;;4983956;28;20037;-59
2022/08/18 10:42:44;;;;;;;8.02;7.22;;;23.20;99.90;;;;;;4984652;28;20030;-59
2022/08/18 10:45:29;;;;;;;9.80;8.75;;;23.30;99.90;;;;;;4984827;28;20018;-59
2022/08/18 10:48:15;;;;;;;9.93;8.20;;;23.00;99.90;;;;;;4995927;28;20037;-59
2022/08/18 10:51:02;;;;;;;10.45;9.30;;;23.20;99.90;;;;;;4987067;28;20045;-59
2022/08/18 10:53:49;;;;;;;9.23;8.10;;;23.20;99.90;;;;;;4986018;28;20061;-60
2022/08/18 10:56:48;;;;;;;13.02;9.18;;;23.30;99.90;;;;;;4984423;28;20742;-58
2022/08/18 10:59:34;;;;;;;9.55;8.10;;;23.00;99.90;;;;;;4996438;28;20481;-60
2022/08/18 11:02:40;;;;;;;9.85;8.23;;;23.00;99.90;;;;;;4986408;28;20046;-59
2022/08/18 11:05:08;;;;;;;9.88;7.15;;;22.90;99.90;;;;;;4985325;28;20038;-59
2022/08/18 11:07:34;;;;;;;9.82;8.30;;;23.10;99.90;;;;;;4983318;28;20113;-60
2022/08/18 11:10:19;;;;;;;12.95;10.70;;;23.00;99.90;;;;;;4978643;28;20033;-59
2022/08/18 11:13:23;;;;;;;13.18;9.80;;;22.80;99.90;;;;;;4986017;28;20180;-59
2022/08/18 11:16:12;;;;;;;10.95;8.82;;;23.00;99.90;;;;;;4983770;28;20517;-60
2022/08/18 11:18:48;;;;;;;11.02;9.80;;;23.30;99.90;;;;;;4983956;28;20113;-60
2022/08/18 11:21:40;;;;;;;9.50;8.57;;;23.70;99.90;;;;;;4982608;28;20486;-61
2022/08/18 11:24:22;;;;;;;9.95;8.90;;;24.00;99.90;;;;;;4989258;28;20025;-60
2022/08/18 11:26:56;;;;;;;10.15;8.88;;;23.40;99.90;;;;;;4982426;28;20030;-59
2022/08/18 11:29:37;;;;;;;9.00;7.78;;;23.50;99.90;;;;;;4982719;28;20022;-60
2022/08/18 11:32:24;;;;;;;9.15;7.15;;;23.90;99.90;;;;;;4986010;28;20070;-59
2022/08/18 11:34:58;;;;;;;8.77;7.15;;;23.90;99.90;;;;;;4984903;28;20045;-60
2022/08/18 11:37:43;;;;;;;9.13;8.15;;;23.80;99.90;;;;;;4983670;28;20030;-61
2022/08/18 11:40:35;;;;;;;9.73;7.45;;;23.70;99.90;;;;;;4985756;28;20018;-59
2022/08/18 11:43:18;;;;;;;10.60;7.20;;;23.90;99.90;;;;;;4983498;28;20263;-60
2022/08/18 11:45:46;;;;;;;10.75;8.25;;;24.10;99.90;;;;;;4987241;28;20037;-60
2022/08/18 11:48:23;;;;;;;8.40;6.95;;;23.80;99.90;;;;;;4985265;28;20034;-60
2022/08/18 11:50:54;;;;;;;9.95;7.40;;;23.70;99.90;;;;;;4986509;28;20038;-60
2022/08/18 11:53:37;;;;;;;8.18;6.18;;;23.70;99.90;;;;;;4993198;28;20030;-59
2022/08/18 11:56:27;;;;;;;9.07;6.65;;;23.90;99.90;;;;;;4982683;28;20053;-60
2022/08/18 11:59:05;;;;;;;8.75;6.30;;;24.20;99.90;;;;;;4985276;28;20027;-60
2022/08/18 12:01:51;;;;;;;7.95;5.72;;;24.30;99.90;;;;;;4991640;28;20042;-59
2022/08/18 12:04:24;;;;;;;7.63;5.53;;;24.30;99.90;;;;;;4983327;28;20026;-61
2022/08/18 12:07:01;;;;;;;7.60;5.90;;;23.90;99.90;;;;;;4978768;28;20445;-60
2022/08/18 12:09:48;;;;;;;8.35;6.15;;;23.90;99.90;;;;;;4980974;28;20152;-60
2022/08/18 12:12:14;;;;;;;8.00;5.50;;;23.70;99.90;;;;;;4979770;28;20034;-60
2022/08/18 12:15:00;;;;;;;5.95;5.35;;;24.00;99.90;;;;;;4976908;28;20037;-59
2022/08/18 12:17:30;;;;;;;7.10;5.13;;;23.90;99.90;;;;;;4986533;28;20037;-59
2022/08/18 12:19:57;;;;;;;7.55;5.43;;;23.70;99.90;;;;;;4982418;28;20166;-59
2022/08/18 12:22:30;;;;;;;6.75;4.88;;;23.80;99.90;;;;;;4985909;28;20026;-59
2022/08/18 12:24:56;;;;;;;6.10;5.35;;;23.90;99.90;;;;;;4983700;28;20046;-60
2022/08/18 12:27:24;;;;;;;5.70;4.40;;;24.20;99.90;;;;;;4983515;28;20378;-59
2022/08/18 12:29:51;;;;;;;5.85;4.88;;;24.30;99.90;;;;;;4981605;28;20023;-60
2022/08/18 12:32:18;;;;;;;4.88;4.47;;;24.40;99.90;;;;;;4983940;28;20038;-60
2022/08/18 12:34:45;;;;;;;5.43;4.60;;;24.50;99.90;;;;;;4980886;28;20037;-59
2022/08/18 12:37:15;;;;;;;5.55;4.95;;;24.60;99.90;;;;;;4983390;28;20030;-59
2022/08/18 12:39:41;;;;;;;5.38;4.32;;;24.40;99.90;;;;;;4984561;28;20374;-60
2022/08/18 12:42:07;;;;;;;10.93;4.95;;;24.30;99.90;;;;;;4979974;28;20026;-59
2022/08/18 12:44:33;;;;;;;5.80;4.40;;;24.10;99.90;;;;;;4982630;28;20027;-60
2022/08/18 12:47:01;;;;;;;5.18;4.07;;;24.30;99.90;;;;;;4983473;28;20161;-60
2022/08/18 12:49:26;;;;;;;6.30;4.05;;;24.50;99.90;;;;;;4983470;28;20604;-59
2022/08/18 12:51:54;;;;;;;4.32;3.92;;;24.50;99.90;;;;;;5000101;28;20192;-60
2022/08/18 12:54:20;;;;;;;5.13;4.28;;;24.50;99.90;;;;;;4978894;28;20042;-59
2022/08/18 12:56:52;;;;;;;4.30;3.80;;;24.80;99.90;;;;;;4982289;28;20054;-59
2022/08/18 12:59:18;;;;;;;5.63;3.75;;;24.80;99.90;;;;;;4982774;28;20027;-60
2022/08/18 13:01:44;;;;;;;5.30;3.58;;;24.90;99.90;;;;;;4974660;28;20060;-59
2022/08/18 13:04:10;;;;;;;4.57;3.25;;;24.80;99.90;;;;;;4976575;28;20638;-59
2022/08/18 13:06:40;;;;;;;4.18;3.50;;;24.90;99.90;;;;;;4985892;28;20062;-59
2022/08/18 13:09:06;;;;;;;4.18;3.30;;;24.80;99.90;;;;;;4984814;28;20394;-59
2022/08/18 13:11:32;;;;;;;4.85;3.17;;;24.70;99.90;;;;;;4982890;28;20038;-59
2022/08/18 13:13:57;;;;;;;5.47;3.72;;;24.80;99.90;;;;;;4981962;28;20046;-60
2022/08/18 13:16:25;;;;;;;5.28;3.55;;;24.70;99.90;;;;;;4985010;28;20226;-59
2022/08/18 13:18:51;;;;;;;5.93;3.58;;;25.00;99.90;;;;;;4989606;28;20382;-59
2022/08/18 13:21:17;;;;;;;6.43;3.95;;;25.30;99.90;;;;;;4979769;28;20097;-59